Thunder radar more information blitzortung!


Radar de pluja more information rain snow radar


Visita la nostra xarxa de llocs de meteo:

Template documentation
and downloads

And another site



Extreme low temperature From: 13-12-2017 09:00 Until: 09:59 warning for: Extreme low temperature Level: Yellow info button

Pagina Historial Weather Underground text

Diari Resum Juny 17, 2017 Unitats:  Tant    Imperial   Mètric
« Previous Dia
SegĂźent Dia »
Diari Setmana Mensual Anual Personalitzada
  Maxima: Minima: Media:
Temperatura: 90.7 °F /  32.6 °C 70.3 °F /  21.3 °C 82 °F /  27.8 °C
Punt de rosada: 66.9 °F /  19.4 °C 59.4 °F /  15.2 °C 63.9 °F /  17.7 °C
Humitat: 82 % 42 % 56 %
Wind Speed: 13.8 mph /  22.2 km/h - 4.7 mph /  7.6 km/h
RĂ fegues de vent: 13.8 mph /  22.2 km/h - -
Vent:- - SE
Pression baro: 30.1 in /  1017.8 hPa 29.9 in /  1012.8 hPa -
Precipitacions: 0 in /  0.0 mm    
Historical Graphs
 
 
Dades de taula per Juny 17, 2017
Temps Temperatura Punt de rosada Pression baro Vent Wind Speed RĂ fegues de vent Humitat Rainfall Rate (Hourly)
00:00 77 °F /  25.0 °C 59.5 °F /  15.3 °C 30.1 in /  1017.8 hPa SW 2.6 mph /  4.2 km/h 2.6 mph /  4.2 km/h 55 % 0 in /  0.0 mm
00:05 76.8 °F /  24.9 °C 59.9 °F /  15.5 °C 30.1 in /  1017.8 hPa SSW 2.3 mph /  3.7 km/h 2.3 mph /  3.7 km/h 56 % 0 in /  0.0 mm
00:15 72.7 °F /  22.6 °C 60.6 °F /  15.9 °C 30 in /  1015.8 hPa Calm   1 mph /  1.6 km/h 66 % 0 in /  0.0 mm
00:25 72.7 °F /  22.6 °C 60.6 °F /  15.9 °C 30 in /  1015.8 hPa Calm   2 mph /  3.2 km/h 66 % 0 in /  0.0 mm
00:35 72.5 °F /  22.5 °C 60.4 °F /  15.8 °C 30 in /  1015.8 hPa NNW 1 mph /  1.6 km/h 1 mph /  1.6 km/h 66 % 0 in /  0.0 mm
00:45 72.5 °F /  22.5 °C 60.1 °F /  15.6 °C 30 in /  1015.8 hPa NW 1 mph /  1.6 km/h 2 mph /  3.2 km/h 65 % 0 in /  0.0 mm
00:55 72.3 °F /  22.4 °C 60.3 °F /  15.7 °C 30 in /  1015.8 hPa Calm   1 mph /  1.6 km/h 66 % 0 in /  0.0 mm
01:05 72.1 °F /  22.3 °C 60.3 °F /  15.7 °C 30 in /  1014.8 hPa North 1 mph /  1.6 km/h 2 mph /  3.2 km/h 66 % 0 in /  0.0 mm
01:15 72.1 °F /  22.3 °C 60.3 °F /  15.7 °C 30 in /  1014.8 hPa Calm   1 mph /  1.6 km/h 66 % 0 in /  0.0 mm
01:25 72 °F /  22.2 °C 60.1 °F /  15.6 °C 30 in /  1015.8 hPa NNE 1 mph /  1.6 km/h 2 mph /  3.2 km/h 66 % 0 in /  0.0 mm
01:35 70.9 °F /  21.6 °C 59.7 °F /  15.4 °C 30 in /  1015.8 hPa Calm     68 % 0 in /  0.0 mm
01:45 70.3 °F /  21.3 °C 59.7 °F /  15.4 °C 30 in /  1015.8 hPa Calm   2 mph /  3.2 km/h 69 % 0 in /  0.0 mm
02:00 70.9 °F /  21.6 °C 60.3 °F /  15.7 °C 30 in /  1015.8 hPa Calm   1 mph /  1.6 km/h 69 % 0 in /  0.0 mm
02:10 70.5 °F /  21.4 °C 59.4 °F /  15.2 °C 30 in /  1015.8 hPa NW 1 mph /  1.6 km/h 2 mph /  3.2 km/h 68 % 0 in /  0.0 mm
02:20 70.9 °F /  21.6 °C 60.6 °F /  15.9 °C 30 in /  1015.8 hPa Calm   1 mph /  1.6 km/h 70 % 0 in /  0.0 mm
02:30 70.9 °F /  21.6 °C 60.3 °F /  15.7 °C 30 in /  1015.8 hPa SW 1 mph /  1.6 km/h 1 mph /  1.6 km/h 69 % 0 in /  0.0 mm
02:40 71.6 °F /  22.0 °C 61 °F /  16.1 °C 30 in /  1015.8 hPa SW 1 mph /  1.6 km/h 2 mph /  3.2 km/h 69 % 0 in /  0.0 mm
02:50 73 °F /  22.8 °C 61.9 °F /  16.6 °C 30 in /  1015.8 hPa South 1 mph /  1.6 km/h 1 mph /  1.6 km/h 68 % 0 in /  0.0 mm
03:00 73.2 °F /  22.9 °C 61.5 °F /  16.4 °C 30 in /  1015.8 hPa SSE 2 mph /  3.2 km/h 2 mph /  3.2 km/h 67 % 0 in /  0.0 mm
03:10 73.6 °F /  23.1 °C 61.5 °F /  16.4 °C 30 in /  1015.8 hPa South 1 mph /  1.6 km/h 3 mph /  4.8 km/h 66 % 0 in /  0.0 mm
03:20 73.9 °F /  23.3 °C 61.3 °F /  16.3 °C 30 in /  1015.8 hPa SW 1 mph /  1.6 km/h 2 mph /  3.2 km/h 65 % 0 in /  0.0 mm
03:30 74.3 °F /  23.5 °C 61.9 °F /  16.6 °C 30 in /  1015.8 hPa SW 1 mph /  1.6 km/h 2 mph /  3.2 km/h 65 % 0 in /  0.0 mm
03:40 74.7 °F /  23.7 °C 61.7 °F /  16.5 °C 30 in /  1015.8 hPa SW 1 mph /  1.6 km/h 3 mph /  4.8 km/h 64 % 0 in /  0.0 mm
03:50 75.7 °F /  24.3 °C 61.9 °F /  16.6 °C 30 in /  1015.8 hPa SW 2 mph /  3.2 km/h 2 mph /  3.2 km/h 62 % 0 in /  0.0 mm
04:00 77.4 °F /  25.2 °C 63 °F /  17.2 °C 30 in /  1015.8 hPa Calm   2 mph /  3.2 km/h 61 % 0 in /  0.0 mm
04:10 79.2 °F /  26.2 °C 64 °F /  17.8 °C 30 in /  1015.8 hPa NNW 1 mph /  1.6 km/h 2 mph /  3.2 km/h 60 % 0 in /  0.0 mm
04:20 79.5 °F /  26.4 °C 63.3 °F /  17.4 °C 30 in /  1015.8 hPa NNE 3 mph /  4.8 km/h 3 mph /  4.8 km/h 58 % 0 in /  0.0 mm
04:30 80.8 °F /  27.1 °C 64 °F /  17.8 °C 30 in /  1015.8 hPa NE 1 mph /  1.6 km/h 2 mph /  3.2 km/h 57 % 0 in /  0.0 mm
04:40 81.1 °F /  27.3 °C 64 °F /  17.8 °C 30 in /  1015.8 hPa NE 1 mph /  1.6 km/h 3 mph /  4.8 km/h 56 % 0 in /  0.0 mm
04:50 81.9 °F /  27.7 °C 64 °F /  17.8 °C 30 in /  1015.8 hPa NE 2 mph /  3.2 km/h 2 mph /  3.2 km/h 55 % 0 in /  0.0 mm
05:00 82.9 °F /  28.3 °C 64.6 °F /  18.1 °C 30 in /  1015.8 hPa North 1 mph /  1.6 km/h 2 mph /  3.2 km/h 54 % 0 in /  0.0 mm
10:02 83.7 °F /  28.7 °C 64.8 °F /  18.2 °C 30 in /  1015.8 hPa NE 1.2 mph /  1.9 km/h 2.9 mph /  4.7 km/h 53 % 0 in /  0.0 mm
10:07 82.9 °F /  28.3 °C 64 °F /  17.8 °C 30 in /  1015.8 hPa East 2.3 mph /  3.7 km/h 2.3 mph /  3.7 km/h 53 % 0 in /  0.0 mm
10:12 82.8 °F /  28.2 °C 63.3 °F /  17.4 °C 30 in /  1015.8 hPa ESE 4.6 mph /  7.4 km/h 4.6 mph /  7.4 km/h 52 % 0 in /  0.0 mm
10:17 82.6 °F /  28.1 °C 63.1 °F /  17.3 °C 30 in /  1015.8 hPa SE 4.6 mph /  7.4 km/h 4.6 mph /  7.4 km/h 52 % 0 in /  0.0 mm
10:22 83.3 °F /  28.5 °C 63.9 °F /  17.7 °C 30 in /  1015.8 hPa ESE 4.6 mph /  7.4 km/h 4.6 mph /  7.4 km/h 52 % 0 in /  0.0 mm
10:27 84 °F /  28.9 °C 64.6 °F /  18.1 °C 30 in /  1015.8 hPa NE 3.5 mph /  5.6 km/h 3.5 mph /  5.6 km/h 52 % 0 in /  0.0 mm
10:32 85.1 °F /  29.5 °C 64.4 °F /  18.0 °C 30 in /  1015.8 hPa ESE 3.1 mph /  5.0 km/h 3.1 mph /  5.0 km/h 50 % 0 in /  0.0 mm
10:37 84.4 °F /  29.1 °C 63.7 °F /  17.6 °C 30 in /  1015.8 hPa SSE 2.3 mph /  3.7 km/h 2.3 mph /  3.7 km/h 50 % 0 in /  0.0 mm
10:42 84.4 °F /  29.1 °C 63.1 °F /  17.3 °C 30 in /  1015.8 hPa NE 2.6 mph /  4.2 km/h 2.6 mph /  4.2 km/h 49 % 0 in /  0.0 mm
10:47 84 °F /  28.9 °C 63.3 °F /  17.4 °C 30 in /  1014.8 hPa NNE 4.6 mph /  7.4 km/h 4.6 mph /  7.4 km/h 50 % 0 in /  0.0 mm
10:52 84.9 °F /  29.4 °C 63.7 °F /  17.6 °C 30 in /  1014.8 hPa SSE 2.3 mph /  3.7 km/h 2.3 mph /  3.7 km/h 49 % 0 in /  0.0 mm
10:57 85.5 °F /  29.7 °C 64 °F /  17.8 °C 30 in /  1014.8 hPa East 3.3 mph /  5.3 km/h 3.3 mph /  5.3 km/h 49 % 0 in /  0.0 mm
11:02 86.2 °F /  30.1 °C 64.2 °F /  17.9 °C 30 in /  1014.8 hPa SSW 3.5 mph /  5.6 km/h 3.5 mph /  5.6 km/h 48 % 0 in /  0.0 mm
11:07 86 °F /  30.0 °C 64 °F /  17.8 °C 30 in /  1014.8 hPa WSW 2.6 mph /  4.2 km/h 2.6 mph /  4.2 km/h 48 % 0 in /  0.0 mm
11:12 87.6 °F /  30.9 °C 64.9 °F /  18.3 °C 30 in /  1014.8 hPa South 3.8 mph /  6.1 km/h 3.8 mph /  6.1 km/h 47 % 0 in /  0.0 mm
11:17 87.8 °F /  31.0 °C 64.4 °F /  18.0 °C 30 in /  1014.8 hPa SW 4.6 mph /  7.4 km/h 4.6 mph /  7.4 km/h 46 % 0 in /  0.0 mm
11:22 88 °F /  31.1 °C 64.6 °F /  18.1 °C 30 in /  1014.8 hPa WNW 2.6 mph /  4.2 km/h 2.6 mph /  4.2 km/h 46 % 0 in /  0.0 mm
11:27 89.1 °F /  31.7 °C 64.9 °F /  18.3 °C 30 in /  1014.8 hPa SSE 2.6 mph /  4.2 km/h 2.6 mph /  4.2 km/h 45 % 0 in /  0.0 mm
11:32 89.2 °F /  31.8 °C 65.1 °F /  18.4 °C 30 in /  1014.8 hPa West 4.6 mph /  7.4 km/h 4.6 mph /  7.4 km/h 45 % 0 in /  0.0 mm
11:37 89.1 °F /  31.7 °C 64.9 °F /  18.3 °C 30 in /  1014.8 hPa SW 3.5 mph /  5.6 km/h 3.5 mph /  5.6 km/h 45 % 0 in /  0.0 mm
11:42 89.6 °F /  32.0 °C 64.8 °F /  18.2 °C 30 in /  1014.8 hPa West 1.2 mph /  1.9 km/h 1.2 mph /  1.9 km/h 44 % 0 in /  0.0 mm
11:47 90.1 °F /  32.3 °C 65.3 °F /  18.5 °C 30 in /  1014.8 hPa WSW 3.5 mph /  5.6 km/h 3.5 mph /  5.6 km/h 44 % 0 in /  0.0 mm
11:52 90.5 °F /  32.5 °C 64.9 °F /  18.3 °C 30 in /  1014.8 hPa NNE 2.3 mph /  3.7 km/h 2.3 mph /  3.7 km/h 43 % 0 in /  0.0 mm
11:57 90.7 °F /  32.6 °C 65.1 °F /  18.4 °C 30 in /  1014.8 hPa South 4.6 mph /  7.4 km/h 4.6 mph /  7.4 km/h 43 % 0 in /  0.0 mm
12:02 90.1 °F /  32.3 °C 64.6 °F /  18.1 °C 30 in /  1014.8 hPa SE 5.8 mph /  9.3 km/h 5.8 mph /  9.3 km/h 43 % 0 in /  0.0 mm
12:07 89.4 °F /  31.9 °C 64 °F /  17.8 °C 30 in /  1014.8 hPa NE 5.9 mph /  9.5 km/h 5.9 mph /  9.5 km/h 43 % 0 in /  0.0 mm
12:12 89.4 °F /  31.9 °C 64 °F /  17.8 °C 30 in /  1014.8 hPa ESE 6.4 mph /  10.3 km/h 6.4 mph /  10.3 km/h 43 % 0 in /  0.0 mm
12:18 89.2 °F /  31.8 °C 63.9 °F /  17.7 °C 29.9 in /  1013.8 hPa ENE 5.8 mph /  9.3 km/h 5.8 mph /  9.3 km/h 43 % 0 in /  0.0 mm
12:23 90.7 °F /  32.6 °C 65.1 °F /  18.4 °C 29.9 in /  1013.8 hPa NE 3.5 mph /  5.6 km/h 3.5 mph /  5.6 km/h 43 % 0 in /  0.0 mm
12:28 89.6 °F /  32.0 °C 64 °F /  17.8 °C 29.9 in /  1013.8 hPa East 7.6 mph /  12.2 km/h 7.6 mph /  12.2 km/h 43 % 0 in /  0.0 mm
12:33 89.2 °F /  31.8 °C 63.9 °F /  17.7 °C 29.9 in /  1013.8 hPa SE 8.1 mph /  13.0 km/h 8.1 mph /  13.0 km/h 43 % 0 in /  0.0 mm
12:38 89.6 °F /  32.0 °C 64 °F /  17.8 °C 29.9 in /  1013.8 hPa SE 5.9 mph /  9.5 km/h 5.9 mph /  9.5 km/h 43 % 0 in /  0.0 mm
12:43 89.6 °F /  32.0 °C 64 °F /  17.8 °C 29.9 in /  1013.8 hPa SE 8.1 mph /  13.0 km/h 8.1 mph /  13.0 km/h 43 % 0 in /  0.0 mm
12:48 89.4 °F /  31.9 °C 64 °F /  17.8 °C 29.9 in /  1013.8 hPa East 6.4 mph /  10.3 km/h 6.4 mph /  10.3 km/h 43 % 0 in /  0.0 mm
12:53 88.5 °F /  31.4 °C 63.1 °F /  17.3 °C 29.9 in /  1013.8 hPa West 9.2 mph /  14.8 km/h 9.2 mph /  14.8 km/h 43 % 0 in /  0.0 mm
12:58 88.7 °F /  31.5 °C 63.3 °F /  17.4 °C 29.9 in /  1013.8 hPa ESE 8.1 mph /  13.0 km/h 8.1 mph /  13.0 km/h 43 % 0 in /  0.0 mm
13:03 89.4 °F /  31.9 °C 64 °F /  17.8 °C 29.9 in /  1013.8 hPa ESE 8.1 mph /  13.0 km/h 8.1 mph /  13.0 km/h 43 % 0 in /  0.0 mm
13:08 90.3 °F /  32.4 °C 64.8 °F /  18.2 °C 29.9 in /  1013.8 hPa ESE 6.9 mph /  11.1 km/h 6.9 mph /  11.1 km/h 43 % 0 in /  0.0 mm
13:13 89.4 °F /  31.9 °C 64 °F /  17.8 °C 29.9 in /  1013.8 hPa East 6.9 mph /  11.1 km/h 6.9 mph /  11.1 km/h 43 % 0 in /  0.0 mm
13:18 89.8 °F /  32.1 °C 64.2 °F /  17.9 °C 29.9 in /  1013.8 hPa East 11.5 mph /  18.5 km/h 11.5 mph /  18.5 km/h 43 % 0 in /  0.0 mm
13:23 89.8 °F /  32.1 °C 64.2 °F /  17.9 °C 29.9 in /  1013.8 hPa ESE 6.9 mph /  11.1 km/h 7.4 mph /  11.9 km/h 43 % 0 in /  0.0 mm
13:28 89.8 °F /  32.1 °C 64.2 °F /  17.9 °C 29.9 in /  1013.8 hPa ESE 11.5 mph /  18.5 km/h 11.5 mph /  18.5 km/h 43 % 0 in /  0.0 mm
13:33 90.1 °F /  32.3 °C 64.6 °F /  18.1 °C 29.9 in /  1013.8 hPa ESE 10.2 mph /  16.4 km/h 10.2 mph /  16.4 km/h 43 % 0 in /  0.0 mm
13:38 90 °F /  32.2 °C 64.6 °F /  18.1 °C 29.9 in /  1013.8 hPa ENE 7.8 mph /  12.6 km/h 7.8 mph /  12.6 km/h 43 % 0 in /  0.0 mm
13:43 90.5 °F /  32.5 °C 64.9 °F /  18.3 °C 29.9 in /  1013.8 hPa SE 9.2 mph /  14.8 km/h 9.2 mph /  14.8 km/h 43 % 0 in /  0.0 mm
13:48 90.3 °F /  32.4 °C 64.8 °F /  18.2 °C 29.9 in /  1013.8 hPa NE 8.5 mph /  13.7 km/h 8.5 mph /  13.7 km/h 43 % 0 in /  0.0 mm
13:53 89.6 °F /  32.0 °C 64 °F /  17.8 °C 29.9 in /  1013.8 hPa ESE 8.1 mph /  13.0 km/h 8.1 mph /  13.0 km/h 43 % 0 in /  0.0 mm
13:58 89.8 °F /  32.1 °C 63.7 °F /  17.6 °C 29.9 in /  1013.8 hPa ESE 8.1 mph /  13.0 km/h 8.1 mph /  13.0 km/h 42 % 0 in /  0.0 mm
14:03 89.2 °F /  31.8 °C 63.9 °F /  17.7 °C 29.9 in /  1013.8 hPa ENE 10.4 mph /  16.7 km/h 10.4 mph /  16.7 km/h 43 % 0 in /  0.0 mm
14:08 89.8 °F /  32.1 °C 64.2 °F /  17.9 °C 29.9 in /  1013.8 hPa East 10.5 mph /  16.9 km/h 10.5 mph /  16.9 km/h 43 % 0 in /  0.0 mm
14:13 89.6 °F /  32.0 °C 64 °F /  17.8 °C 29.9 in /  1013.8 hPa ENE 9.8 mph /  15.8 km/h 9.8 mph /  15.8 km/h 43 % 0 in /  0.0 mm
14:18 89.4 °F /  31.9 °C 64.6 °F /  18.1 °C 29.9 in /  1013.8 hPa NE 8.1 mph /  13.0 km/h 8.1 mph /  13.0 km/h 44 % 0 in /  0.0 mm
14:23 89.6 °F /  32.0 °C 64.8 °F /  18.2 °C 29.9 in /  1013.8 hPa ESE 10.4 mph /  16.7 km/h 10.4 mph /  16.7 km/h 44 % 0 in /  0.0 mm
14:28 89.8 °F /  32.1 °C 64.9 °F /  18.3 °C 29.9 in /  1013.8 hPa East 8.1 mph /  13.0 km/h 8.1 mph /  13.0 km/h 44 % 0 in /  0.0 mm
14:33 89.4 °F /  31.9 °C 65.3 °F /  18.5 °C 29.9 in /  1012.8 hPa ESE 11.5 mph /  18.5 km/h 11.5 mph /  18.5 km/h 45 % 0 in /  0.0 mm
14:38 89.8 °F /  32.1 °C 64.9 °F /  18.3 °C 29.9 in /  1012.8 hPa ESE 11.5 mph /  18.5 km/h 11.5 mph /  18.5 km/h 44 % 0 in /  0.0 mm
14:43 89.2 °F /  31.8 °C 65.1 °F /  18.4 °C 29.9 in /  1012.8 hPa East 8.1 mph /  13.0 km/h 8.1 mph /  13.0 km/h 45 % 0 in /  0.0 mm
14:48 89.4 °F /  31.9 °C 65.3 °F /  18.5 °C 29.9 in /  1012.8 hPa NE 8.1 mph /  13.0 km/h 8.1 mph /  13.0 km/h 45 % 0 in /  0.0 mm
14:53 89.2 °F /  31.8 °C 65.8 °F /  18.8 °C 29.9 in /  1012.8 hPa ESE 9.2 mph /  14.8 km/h 9.2 mph /  14.8 km/h 46 % 0 in /  0.0 mm
14:54 89.1 °F /  31.7 °C 65.7 °F /  18.7 °C 29.9 in /  1012.8 hPa East 10.4 mph /  16.7 km/h 10.4 mph /  16.7 km/h 46 % 0 in /  0.0 mm
14:59 89.2 °F /  31.8 °C 65.8 °F /  18.8 °C 29.9 in /  1012.8 hPa WNW 5.8 mph /  9.3 km/h 5.8 mph /  9.3 km/h 46 % 0 in /  0.0 mm
15:04 89.4 °F /  31.9 °C 65.8 °F /  18.8 °C 29.9 in /  1013.8 hPa ESE 12.7 mph /  20.4 km/h 12.7 mph /  20.4 km/h 46 % 0 in /  0.0 mm
15:09 89.2 °F /  31.8 °C 65.8 °F /  18.8 °C 29.9 in /  1013.8 hPa ESE 6.9 mph /  11.1 km/h 6.9 mph /  11.1 km/h 46 % 0 in /  0.0 mm
15:14 89.4 °F /  31.9 °C 65.8 °F /  18.8 °C 29.9 in /  1013.8 hPa ENE 10.4 mph /  16.7 km/h 10.4 mph /  16.7 km/h 46 % 0 in /  0.0 mm
15:19 89.6 °F /  32.0 °C 66.7 °F /  19.3 °C 29.9 in /  1013.8 hPa ESE 8.1 mph /  13.0 km/h 8.1 mph /  13.0 km/h 47 % 0 in /  0.0 mm
15:24 88.9 °F /  31.6 °C 66.7 °F /  19.3 °C 29.9 in /  1013.8 hPa East 13.8 mph /  22.2 km/h 13.8 mph /  22.2 km/h 48 % 0 in /  0.0 mm
15:29 89.2 °F /  31.8 °C 66.9 °F /  19.4 °C 29.9 in /  1013.8 hPa ESE 8.1 mph /  13.0 km/h 8.1 mph /  13.0 km/h 48 % 0 in /  0.0 mm
15:34 88.9 °F /  31.6 °C 66 °F /  18.9 °C 29.9 in /  1013.8 hPa East 11.5 mph /  18.5 km/h 11.5 mph /  18.5 km/h 47 % 0 in /  0.0 mm
15:39 88.7 °F /  31.5 °C 65.3 °F /  18.5 °C 29.9 in /  1013.8 hPa NE 8.1 mph /  13.0 km/h 8.1 mph /  13.0 km/h 46 % 0 in /  0.0 mm
15:44 89.4 °F /  31.9 °C 65.8 °F /  18.8 °C 29.9 in /  1013.8 hPa ESE 5.8 mph /  9.3 km/h 5.8 mph /  9.3 km/h 46 % 0 in /  0.0 mm
15:49 90 °F /  32.2 °C 65.8 °F /  18.8 °C 29.9 in /  1013.8 hPa ESE 6.9 mph /  11.1 km/h 6.9 mph /  11.1 km/h 45 % 0 in /  0.0 mm
15:54 88.9 °F /  31.6 °C 64.8 °F /  18.2 °C 29.9 in /  1013.8 hPa ENE 11.5 mph /  18.5 km/h 11.5 mph /  18.5 km/h 45 % 0 in /  0.0 mm
15:59 89.6 °F /  32.0 °C 64.8 °F /  18.2 °C 29.9 in /  1013.8 hPa ENE 6 mph /  9.7 km/h 6 mph /  9.7 km/h 44 % 0 in /  0.0 mm
16:04 89.4 °F /  31.9 °C 64.6 °F /  18.1 °C 29.9 in /  1012.8 hPa ESE 10.4 mph /  16.7 km/h 10.4 mph /  16.7 km/h 44 % 0 in /  0.0 mm
16:09 89.4 °F /  31.9 °C 64 °F /  17.8 °C 29.9 in /  1012.8 hPa SSE 9.2 mph /  14.8 km/h 9.2 mph /  14.8 km/h 43 % 0 in /  0.0 mm
16:15 88.9 °F /  31.6 °C 63.5 °F /  17.5 °C 29.9 in /  1013.8 hPa NE 8.1 mph /  13.0 km/h 8.1 mph /  13.0 km/h 43 % 0 in /  0.0 mm
16:20 88.7 °F /  31.5 °C 62.8 °F /  17.1 °C 29.9 in /  1013.8 hPa ENE 9.2 mph /  14.8 km/h 9.2 mph /  14.8 km/h 42 % 0 in /  0.0 mm
16:25 88.9 °F /  31.6 °C 62.8 °F /  17.1 °C 29.9 in /  1013.8 hPa ESE 8.1 mph /  13.0 km/h 8.1 mph /  13.0 km/h 42 % 0 in /  0.0 mm
16:30 88.5 °F /  31.4 °C 62.4 °F /  16.9 °C 29.9 in /  1013.8 hPa ESE 8.7 mph /  14.0 km/h 8.7 mph /  14.0 km/h 42 % 0 in /  0.0 mm
16:35 88.2 °F /  31.2 °C 62.2 °F /  16.8 °C 29.9 in /  1013.8 hPa ENE 13 mph /  20.9 km/h 13 mph /  20.9 km/h 42 % 0 in /  0.0 mm
16:40 88.2 °F /  31.2 °C 62.8 °F /  17.1 °C 29.9 in /  1013.8 hPa ESE 5.9 mph /  9.5 km/h 5.9 mph /  9.5 km/h 43 % 0 in /  0.0 mm
16:45 88.2 °F /  31.2 °C 62.8 °F /  17.1 °C 29.9 in /  1013.8 hPa ENE 10.4 mph /  16.7 km/h 10.4 mph /  16.7 km/h 43 % 0 in /  0.0 mm
16:46 88.2 °F /  31.2 °C 62.8 °F /  17.1 °C 29.9 in /  1013.8 hPa ESE 7.4 mph /  11.9 km/h 7.4 mph /  11.9 km/h 43 % 0 in /  0.0 mm
16:51 88 °F /  31.1 °C 62.8 °F /  17.1 °C 29.9 in /  1013.8 hPa East 7.1 mph /  11.4 km/h 7.1 mph /  11.4 km/h 43 % 0 in /  0.0 mm
16:56 87.8 °F /  31.0 °C 61.9 °F /  16.6 °C 29.9 in /  1013.8 hPa NE 8.1 mph /  13.0 km/h 8.1 mph /  13.0 km/h 42 % 0 in /  0.0 mm
17:01 88 °F /  31.1 °C 62.8 °F /  17.1 °C 29.9 in /  1013.8 hPa ESE 10.4 mph /  16.7 km/h 10.4 mph /  16.7 km/h 43 % 0 in /  0.0 mm
17:06 87.8 °F /  31.0 °C 62.4 °F /  16.9 °C 29.9 in /  1013.8 hPa ENE 5.8 mph /  9.3 km/h 5.8 mph /  9.3 km/h 43 % 0 in /  0.0 mm
17:11 87.4 °F /  30.8 °C 62.8 °F /  17.1 °C 29.9 in /  1013.8 hPa East 5.8 mph /  9.3 km/h 5.8 mph /  9.3 km/h 44 % 0 in /  0.0 mm
17:16 87.6 °F /  30.9 °C 63 °F /  17.2 °C 29.9 in /  1013.8 hPa ENE 9.2 mph /  14.8 km/h 9.2 mph /  14.8 km/h 44 % 0 in /  0.0 mm
17:21 87.1 °F /  30.6 °C 63.1 °F /  17.3 °C 29.9 in /  1013.8 hPa ESE 13 mph /  20.9 km/h 13 mph /  20.9 km/h 45 % 0 in /  0.0 mm
17:26 86.7 °F /  30.4 °C 62.8 °F /  17.1 °C 29.9 in /  1013.8 hPa SE 8.7 mph /  14.0 km/h 8.7 mph /  14.0 km/h 45 % 0 in /  0.0 mm
17:31 86.2 °F /  30.1 °C 63 °F /  17.2 °C 29.9 in /  1013.8 hPa ESE 8.1 mph /  13.0 km/h 8.1 mph /  13.0 km/h 46 % 0 in /  0.0 mm
17:36 85.6 °F /  29.8 °C 63.1 °F /  17.3 °C 29.9 in /  1013.8 hPa SE 10.4 mph /  16.7 km/h 10.4 mph /  16.7 km/h 47 % 0 in /  0.0 mm
17:41 85.3 °F /  29.6 °C 62.8 °F /  17.1 °C 29.9 in /  1013.8 hPa ESE 12.7 mph /  20.4 km/h 12.7 mph /  20.4 km/h 47 % 0 in /  0.0 mm
17:46 85.1 °F /  29.5 °C 63.1 °F /  17.3 °C 29.9 in /  1013.8 hPa ENE 5.8 mph /  9.3 km/h 5.8 mph /  9.3 km/h 48 % 0 in /  0.0 mm
17:47 85.1 °F /  29.5 °C 63.1 °F /  17.3 °C 29.9 in /  1013.8 hPa NW 9.8 mph /  15.8 km/h 9.8 mph /  15.8 km/h 48 % 0 in /  0.0 mm
17:52 85.1 °F /  29.5 °C 63.1 °F /  17.3 °C 29.9 in /  1013.8 hPa NE 5.8 mph /  9.3 km/h 5.8 mph /  9.3 km/h 48 % 0 in /  0.0 mm
17:57 84.7 °F /  29.3 °C 63.5 °F /  17.5 °C 29.9 in /  1013.8 hPa ENE 10.9 mph /  17.5 km/h 10.9 mph /  17.5 km/h 49 % 0 in /  0.0 mm
18:02 84.9 °F /  29.4 °C 63.7 °F /  17.6 °C 29.9 in /  1013.8 hPa East 6.9 mph /  11.1 km/h 6.9 mph /  11.1 km/h 49 % 0 in /  0.0 mm
18:07 85.1 °F /  29.5 °C 63.9 °F /  17.7 °C 29.9 in /  1013.8 hPa SSE 5.8 mph /  9.3 km/h 6.4 mph /  10.3 km/h 49 % 0 in /  0.0 mm
18:12 84.9 °F /  29.4 °C 64.2 °F /  17.9 °C 29.9 in /  1013.8 hPa ESE 5.8 mph /  9.3 km/h 5.8 mph /  9.3 km/h 50 % 0 in /  0.0 mm
18:13 84.7 °F /  29.3 °C 64 °F /  17.8 °C 29.9 in /  1013.8 hPa ENE 10.4 mph /  16.7 km/h 10.4 mph /  16.7 km/h 50 % 0 in /  0.0 mm
18:18 84.6 °F /  29.2 °C 63.9 °F /  17.7 °C 29.9 in /  1012.8 hPa SE 6.9 mph /  11.1 km/h 6.9 mph /  11.1 km/h 50 % 0 in /  0.0 mm
18:23 84.7 °F /  29.3 °C 64 °F /  17.8 °C 29.9 in /  1012.8 hPa ESE 8.5 mph /  13.7 km/h 8.5 mph /  13.7 km/h 50 % 0 in /  0.0 mm
18:28 84.2 °F /  29.0 °C 63.5 °F /  17.5 °C 29.9 in /  1012.8 hPa East 6.9 mph /  11.1 km/h 6.9 mph /  11.1 km/h 50 % 0 in /  0.0 mm
18:33 84 °F /  28.9 °C 64.6 °F /  18.1 °C 29.9 in /  1012.8 hPa ENE 9.2 mph /  14.8 km/h 9.2 mph /  14.8 km/h 52 % 0 in /  0.0 mm
18:38 84 °F /  28.9 °C 64.6 °F /  18.1 °C 29.9 in /  1012.8 hPa ENE 5.8 mph /  9.3 km/h 5.8 mph /  9.3 km/h 52 % 0 in /  0.0 mm
18:43 83.8 °F /  28.8 °C 64.2 °F /  17.9 °C 29.9 in /  1012.8 hPa ENE 8.1 mph /  13.0 km/h 8.1 mph /  13.0 km/h 52 % 0 in /  0.0 mm
18:48 83.7 °F /  28.7 °C 64.2 °F /  17.9 °C 29.9 in /  1012.8 hPa East 7.6 mph /  12.2 km/h 7.6 mph /  12.2 km/h 52 % 0 in /  0.0 mm
18:53 83.7 °F /  28.7 °C 64.2 °F /  17.9 °C 29.9 in /  1012.8 hPa East 6.9 mph /  11.1 km/h 6.9 mph /  11.1 km/h 52 % 0 in /  0.0 mm
18:58 83.3 °F /  28.5 °C 63.9 °F /  17.7 °C 29.9 in /  1012.8 hPa ESE 10.4 mph /  16.7 km/h 10.4 mph /  16.7 km/h 52 % 0 in /  0.0 mm
18:59 83.1 °F /  28.4 °C 63.7 °F /  17.6 °C 29.9 in /  1012.8 hPa East 10.4 mph /  16.7 km/h 10.4 mph /  16.7 km/h 52 % 0 in /  0.0 mm
19:04 83.1 °F /  28.4 °C 63.7 °F /  17.6 °C 29.9 in /  1012.8 hPa ENE 6.9 mph /  11.1 km/h 6.9 mph /  11.1 km/h 52 % 0 in /  0.0 mm
19:09 83.3 °F /  28.5 °C 63.9 °F /  17.7 °C 29.9 in /  1012.8 hPa NNE 8.1 mph /  13.0 km/h 8.1 mph /  13.0 km/h 52 % 0 in /  0.0 mm
19:14 82.9 °F /  28.3 °C 63.5 °F /  17.5 °C 29.9 in /  1012.8 hPa ESE 9.2 mph /  14.8 km/h 9.2 mph /  14.8 km/h 52 % 0 in /  0.0 mm
19:19 82.9 °F /  28.3 °C 63.5 °F /  17.5 °C 29.9 in /  1012.8 hPa North 4.6 mph /  7.4 km/h 4.6 mph /  7.4 km/h 52 % 0 in /  0.0 mm
19:20 75.4 °F /  24.1 °C 64.6 °F /  18.1 °C 29.9 in /  1013.8 hPa SW 1 mph /  1.6 km/h 1 mph /  1.6 km/h 69 % 0 in /  0.0 mm
19:24 82.8 °F /  28.2 °C 63.3 °F /  17.4 °C 29.9 in /  1012.8 hPa East 8.1 mph /  13.0 km/h 8.1 mph /  13.0 km/h 52 % 0 in /  0.0 mm
19:29 82.6 °F /  28.1 °C 63.7 °F /  17.6 °C 29.9 in /  1012.8 hPa ENE 8.1 mph /  13.0 km/h 8.1 mph /  13.0 km/h 53 % 0 in /  0.0 mm
19:30 75.2 °F /  24.0 °C 64.2 °F /  17.9 °C 29.9 in /  1013.8 hPa SW 1 mph /  1.6 km/h 1 mph /  1.6 km/h 69 % 0 in /  0.0 mm
19:34 82.8 °F /  28.2 °C 63.9 °F /  17.7 °C 29.9 in /  1012.8 hPa East 4.6 mph /  7.4 km/h 4.6 mph /  7.4 km/h 53 % 0 in /  0.0 mm
19:39 82.8 °F /  28.2 °C 63.9 °F /  17.7 °C 29.9 in /  1012.8 hPa East 6.9 mph /  11.1 km/h 6.9 mph /  11.1 km/h 53 % 0 in /  0.0 mm
19:40 75.2 °F /  24.0 °C 64.8 °F /  18.2 °C 29.9 in /  1013.8 hPa Calm   2 mph /  3.2 km/h 70 % 0 in /  0.0 mm
19:44 82.4 °F /  28.0 °C 64 °F /  17.8 °C 29.9 in /  1012.8 hPa ESE 3.5 mph /  5.6 km/h 3.5 mph /  5.6 km/h 54 % 0 in /  0.0 mm
19:49 82.4 °F /  28.0 °C 64 °F /  17.8 °C 29.9 in /  1012.8 hPa ENE 8.1 mph /  13.0 km/h 8.1 mph /  13.0 km/h 54 % 0 in /  0.0 mm
19:50 74.8 °F /  23.8 °C 64.8 °F /  18.2 °C 29.9 in /  1013.8 hPa SW 1 mph /  1.6 km/h 2 mph /  3.2 km/h 71 % 0 in /  0.0 mm
19:54 82.4 °F /  28.0 °C 64 °F /  17.8 °C 29.9 in /  1012.8 hPa ESE 6.9 mph /  11.1 km/h 6.9 mph /  11.1 km/h 54 % 0 in /  0.0 mm
19:59 82.2 °F /  27.9 °C 63.9 °F /  17.7 °C 29.9 in /  1012.8 hPa SSE 3.5 mph /  5.6 km/h 3.5 mph /  5.6 km/h 54 % 0 in /  0.0 mm
20:00 74.5 °F /  23.6 °C 64.6 °F /  18.1 °C 29.9 in /  1013.8 hPa SW 1 mph /  1.6 km/h 2 mph /  3.2 km/h 71 % 0 in /  0.0 mm
20:04 82.2 °F /  27.9 °C 63.9 °F /  17.7 °C 29.9 in /  1013.8 hPa ESE 5.8 mph /  9.3 km/h 5.8 mph /  9.3 km/h 54 % 0 in /  0.0 mm
20:09 82 °F /  27.8 °C 64.2 °F /  17.9 °C 29.9 in /  1013.8 hPa ESE 5.9 mph /  9.5 km/h 5.9 mph /  9.5 km/h 55 % 0 in /  0.0 mm
20:10 74.3 °F /  23.5 °C 64.8 °F /  18.2 °C 29.9 in /  1013.8 hPa SW 1 mph /  1.6 km/h 2 mph /  3.2 km/h 72 % 0 in /  0.0 mm
20:14 82 °F /  27.8 °C 64.2 °F /  17.9 °C 29.9 in /  1013.8 hPa East 6.2 mph /  10.0 km/h 6.2 mph /  10.0 km/h 55 % 0 in /  0.0 mm
20:19 81.9 °F /  27.7 °C 64 °F /  17.8 °C 29.9 in /  1013.8 hPa NE 6.4 mph /  10.3 km/h 6.4 mph /  10.3 km/h 55 % 0 in /  0.0 mm
20:20 74.1 °F /  23.4 °C 64.6 °F /  18.1 °C 29.9 in /  1013.8 hPa SW 2 mph /  3.2 km/h 2 mph /  3.2 km/h 72 % 0 in /  0.0 mm
20:24 81.7 °F /  27.6 °C 63.9 °F /  17.7 °C 29.9 in /  1013.8 hPa ESE 4.9 mph /  7.9 km/h 4.9 mph /  7.9 km/h 55 % 0 in /  0.0 mm
20:29 81.5 °F /  27.5 °C 63.9 °F /  17.7 °C 29.9 in /  1013.8 hPa ESE 5.8 mph /  9.3 km/h 5.8 mph /  9.3 km/h 55 % 0 in /  0.0 mm
20:30 73.9 °F /  23.3 °C 64.8 °F /  18.2 °C 29.9 in /  1013.8 hPa SW 1 mph /  1.6 km/h 2 mph /  3.2 km/h 73 % 0 in /  0.0 mm
20:34 81.3 °F /  27.4 °C 63.7 °F /  17.6 °C 29.9 in /  1013.8 hPa NE 4.6 mph /  7.4 km/h 4.6 mph /  7.4 km/h 55 % 0 in /  0.0 mm
20:39 81.1 °F /  27.3 °C 63.3 °F /  17.4 °C 29.9 in /  1013.8 hPa ENE 3.8 mph /  6.1 km/h 3.8 mph /  6.1 km/h 55 % 0 in /  0.0 mm
20:40 73.9 °F /  23.3 °C 64.8 °F /  18.2 °C 30 in /  1014.8 hPa WSW 2 mph /  3.2 km/h 3 mph /  4.8 km/h 73 % 0 in /  0.0 mm
20:44 81.1 °F /  27.3 °C 64 °F /  17.8 °C 29.9 in /  1013.8 hPa NE 3.5 mph /  5.6 km/h 3.5 mph /  5.6 km/h 56 % 0 in /  0.0 mm
20:49 81.1 °F /  27.3 °C 64 °F /  17.8 °C 29.9 in /  1012.8 hPa ESE 2.4 mph /  3.9 km/h 2.4 mph /  3.9 km/h 56 % 0 in /  0.0 mm
20:50 73.8 °F /  23.2 °C 64.9 °F /  18.3 °C 30 in /  1014.8 hPa WSW 1 mph /  1.6 km/h 2 mph /  3.2 km/h 74 % 0 in /  0.0 mm
20:54 81.1 °F /  27.3 °C 64 °F /  17.8 °C 29.9 in /  1012.8 hPa SE 2.6 mph /  4.2 km/h 2.6 mph /  4.2 km/h 56 % 0 in /  0.0 mm
20:59 81 °F /  27.2 °C 63.9 °F /  17.7 °C 29.9 in /  1012.8 hPa East 2.4 mph /  3.9 km/h 2.4 mph /  3.9 km/h 56 % 0 in /  0.0 mm
21:00 73.6 °F /  23.1 °C 65.1 °F /  18.4 °C 29.9 in /  1013.8 hPa SW 1 mph /  1.6 km/h 2 mph /  3.2 km/h 75 % 0 in /  0.0 mm
21:04 80.8 °F /  27.1 °C 63.7 °F /  17.6 °C 29.9 in /  1013.8 hPa WSW 2.3 mph /  3.7 km/h 2.3 mph /  3.7 km/h 56 % 0 in /  0.0 mm
21:09 80.8 °F /  27.1 °C 63.7 °F /  17.6 °C 29.9 in /  1013.8 hPa WSW 2.3 mph /  3.7 km/h 2.3 mph /  3.7 km/h 56 % 0 in /  0.0 mm
21:10 73.4 °F /  23.0 °C 64.9 °F /  18.3 °C 29.9 in /  1013.8 hPa SW 1 mph /  1.6 km/h 2 mph /  3.2 km/h 75 % 0 in /  0.0 mm
21:14 80.8 °F /  27.1 °C 63.7 °F /  17.6 °C 29.9 in /  1013.8 hPa Calm     56 % 0 in /  0.0 mm
21:19 80.6 °F /  27.0 °C 63.5 °F /  17.5 °C 29.9 in /  1013.8 hPa SSE 1.2 mph /  1.9 km/h   56 % 0 in /  0.0 mm
21:20 73.2 °F /  22.9 °C 65.7 °F /  18.7 °C 29.9 in /  1013.8 hPa SW 1 mph /  1.6 km/h 2 mph /  3.2 km/h 77 % 0 in /  0.0 mm
21:24 80.6 °F /  27.0 °C 63.5 °F /  17.5 °C 29.9 in /  1013.8 hPa WSW 1.2 mph /  1.9 km/h   56 % 0 in /  0.0 mm
21:29 80.4 °F /  26.9 °C 63.9 °F /  17.7 °C 29.9 in /  1013.8 hPa WSW 1.2 mph /  1.9 km/h   57 % 0 in /  0.0 mm
21:30 73.2 °F /  22.9 °C 65.7 °F /  18.7 °C 29.9 in /  1013.8 hPa WSW 1 mph /  1.6 km/h 2 mph /  3.2 km/h 77 % 0 in /  0.0 mm
21:34 80.4 °F /  26.9 °C 63.9 °F /  17.7 °C 29.9 in /  1012.8 hPa WSW 3.5 mph /  5.6 km/h 3.5 mph /  5.6 km/h 57 % 0 in /  0.0 mm
21:39 80.2 °F /  26.8 °C 64 °F /  17.8 °C 29.9 in /  1012.8 hPa WSW 2.3 mph /  3.7 km/h 2.3 mph /  3.7 km/h 58 % 0 in /  0.0 mm
21:40 73 °F /  22.8 °C 66 °F /  18.9 °C 29.9 in /  1013.8 hPa Calm   2 mph /  3.2 km/h 79 % 0 in /  0.0 mm
21:44 79.9 °F /  26.6 °C 64.2 °F /  17.9 °C 29.9 in /  1012.8 hPa SW 2.3 mph /  3.7 km/h 2.3 mph /  3.7 km/h 59 % 0 in /  0.0 mm
21:49 79.9 °F /  26.6 °C 64.8 °F /  18.2 °C 29.9 in /  1013.8 hPa SW 2.4 mph /  3.9 km/h 2.4 mph /  3.9 km/h 60 % 0 in /  0.0 mm
21:50 72.9 °F /  22.7 °C 66 °F /  18.9 °C 29.9 in /  1013.8 hPa Calm   2 mph /  3.2 km/h 79 % 0 in /  0.0 mm
21:54 79.5 °F /  26.4 °C 64.4 °F /  18.0 °C 29.9 in /  1013.8 hPa SW 1.6 mph /  2.6 km/h 1.6 mph /  2.6 km/h 60 % 0 in /  0.0 mm
21:59 79.3 °F /  26.3 °C 64.8 °F /  18.2 °C 29.9 in /  1013.8 hPa SW 2.3 mph /  3.7 km/h 2.3 mph /  3.7 km/h 61 % 0 in /  0.0 mm
22:00 72.9 °F /  22.7 °C 66.4 °F /  19.1 °C 29.9 in /  1013.8 hPa Calm     80 % 0 in /  0.0 mm
22:04 79.2 °F /  26.2 °C 64.6 °F /  18.1 °C 29.9 in /  1013.8 hPa WNW 2.3 mph /  3.7 km/h 2.3 mph /  3.7 km/h 61 % 0 in /  0.0 mm
22:09 79 °F /  26.1 °C 64.8 °F /  18.2 °C 29.9 in /  1013.8 hPa SW 2.3 mph /  3.7 km/h 2.3 mph /  3.7 km/h 62 % 0 in /  0.0 mm
22:10 72.3 °F /  22.4 °C 65.8 °F /  18.8 °C 29.9 in /  1013.8 hPa Calm   2 mph /  3.2 km/h 80 % 0 in /  0.0 mm
22:14 78.6 °F /  25.9 °C 64.9 °F /  18.3 °C 29.9 in /  1013.8 hPa SW 2.3 mph /  3.7 km/h 2.3 mph /  3.7 km/h 63 % 0 in /  0.0 mm
22:19 78.4 °F /  25.8 °C 64.8 °F /  18.2 °C 29.9 in /  1012.8 hPa SW 4.6 mph /  7.4 km/h 4.6 mph /  7.4 km/h 63 % 0 in /  0.0 mm
22:20 72 °F /  22.2 °C 65.5 °F /  18.6 °C 29.9 in /  1013.8 hPa Calm     80 % 0 in /  0.0 mm
22:24 78.3 °F /  25.7 °C 65.1 °F /  18.4 °C 29.9 in /  1012.8 hPa SSW 2.3 mph /  3.7 km/h 2.3 mph /  3.7 km/h 64 % 0 in /  0.0 mm
22:29 78.1 °F /  25.6 °C 64.9 °F /  18.3 °C 29.9 in /  1012.8 hPa SW 2.4 mph /  3.9 km/h 2.4 mph /  3.9 km/h 64 % 0 in /  0.0 mm
22:30 71.6 °F /  22.0 °C 64.8 °F /  18.2 °C 29.9 in /  1013.8 hPa Calm     79 % 0 in /  0.0 mm
22:34 77.9 °F /  25.5 °C 65.1 °F /  18.4 °C 29.9 in /  1013.8 hPa SW 2.3 mph /  3.7 km/h 2.3 mph /  3.7 km/h 65 % 0 in /  0.0 mm
22:39 77.9 °F /  25.5 °C 65.1 °F /  18.4 °C 29.9 in /  1013.8 hPa SW 2.3 mph /  3.7 km/h 2.3 mph /  3.7 km/h 65 % 0 in /  0.0 mm
22:40 71.4 °F /  21.9 °C 64.6 °F /  18.1 °C 29.9 in /  1013.8 hPa Calm     79 % 0 in /  0.0 mm
22:44 77.5 °F /  25.3 °C 64.8 °F /  18.2 °C 29.9 in /  1013.8 hPa SW 2.3 mph /  3.7 km/h 2.3 mph /  3.7 km/h 65 % 0 in /  0.0 mm
22:49 77.4 °F /  25.2 °C 64.8 °F /  18.2 °C 29.9 in /  1013.8 hPa WSW 3.1 mph /  5.0 km/h 3.1 mph /  5.0 km/h 65 % 0 in /  0.0 mm
22:50 71.4 °F /  21.9 °C 64.6 °F /  18.1 °C 29.9 in /  1013.8 hPa Calm   1 mph /  1.6 km/h 79 % 0 in /  0.0 mm
22:54 77.2 °F /  25.1 °C 64.9 °F /  18.3 °C 29.9 in /  1013.8 hPa WSW 2.3 mph /  3.7 km/h 2.3 mph /  3.7 km/h 66 % 0 in /  0.0 mm
22:59 77 °F /  25.0 °C 64.8 °F /  18.2 °C 29.9 in /  1013.8 hPa WSW 1.2 mph /  1.9 km/h 1.2 mph /  1.9 km/h 66 % 0 in /  0.0 mm
23:00 71.2 °F /  21.8 °C 64.8 °F /  18.2 °C 29.9 in /  1013.8 hPa Calm   1 mph /  1.6 km/h 80 % 0 in /  0.0 mm
23:04 77 °F /  25.0 °C 64.8 °F /  18.2 °C 29.9 in /  1013.8 hPa WSW 2.4 mph /  3.9 km/h 2.4 mph /  3.9 km/h 66 % 0 in /  0.0 mm
23:09 76.8 °F /  24.9 °C 64.9 °F /  18.3 °C 29.9 in /  1013.8 hPa WSW 2.3 mph /  3.7 km/h 2.3 mph /  3.7 km/h 67 % 0 in /  0.0 mm
23:10 71.1 °F /  21.7 °C 64.9 °F /  18.3 °C 29.9 in /  1012.8 hPa Calm     81 % 0 in /  0.0 mm
23:14 76.8 °F /  24.9 °C 64.9 °F /  18.3 °C 29.9 in /  1013.8 hPa SSW 2.9 mph /  4.7 km/h 2.9 mph /  4.7 km/h 67 % 0 in /  0.0 mm
23:19 76.8 °F /  24.9 °C 64.9 °F /  18.3 °C 29.9 in /  1013.8 hPa WSW 3.5 mph /  5.6 km/h 3.5 mph /  5.6 km/h 67 % 0 in /  0.0 mm
23:20 70.9 °F /  21.6 °C 64.8 °F /  18.2 °C 29.9 in /  1012.8 hPa Calm     81 % 0 in /  0.0 mm
23:24 76.6 °F /  24.8 °C 64.9 °F /  18.3 °C 29.9 in /  1013.8 hPa SW 3.5 mph /  5.6 km/h 3.5 mph /  5.6 km/h 67 % 0 in /  0.0 mm
23:29 76.5 °F /  24.7 °C 64.8 °F /  18.2 °C 29.9 in /  1013.8 hPa SW 3.5 mph /  5.6 km/h 3.5 mph /  5.6 km/h 67 % 0 in /  0.0 mm
23:30 70.7 °F /  21.5 °C 64.9 °F /  18.3 °C 29.9 in /  1013.8 hPa SE 1 mph /  1.6 km/h 1 mph /  1.6 km/h 82 % 0 in /  0.0 mm
23:34 76.3 °F /  24.6 °C 64.9 °F /  18.3 °C 29.9 in /  1013.8 hPa SW 2.6 mph /  4.2 km/h 2.6 mph /  4.2 km/h 68 % 0 in /  0.0 mm
23:39 76.1 °F /  24.5 °C 64.8 °F /  18.2 °C 29.9 in /  1013.8 hPa SW 2.3 mph /  3.7 km/h 2.3 mph /  3.7 km/h 68 % 0 in /  0.0 mm
23:40 70.7 °F /  21.5 °C 64.9 °F /  18.3 °C 29.9 in /  1013.8 hPa Calm     82 % 0 in /  0.0 mm
23:44 76.1 °F /  24.5 °C 64.8 °F /  18.2 °C 29.9 in /  1013.8 hPa WSW 3.5 mph /  5.6 km/h 3.5 mph /  5.6 km/h 68 % 0 in /  0.0 mm
23:49 75.9 °F /  24.4 °C 64.6 °F /  18.1 °C 29.9 in /  1013.8 hPa SW 4 mph /  6.4 km/h 4 mph /  6.4 km/h 68 % 0 in /  0.0 mm
23:50 70.7 °F /  21.5 °C 64.9 °F /  18.3 °C 29.9 in /  1013.8 hPa East 1 mph /  1.6 km/h 2 mph /  3.2 km/h 82 % 0 in /  0.0 mm
23:54 75.9 °F /  24.4 °C 64.6 °F /  18.1 °C 29.9 in /  1013.8 hPa WSW 2.3 mph /  3.7 km/h 2.3 mph /  3.7 km/h 68 % 0 in /  0.0 mm
23:59 75.7 °F /  24.3 °C 64.4 °F /  18.0 °C 29.9 in /  1013.8 hPa SW 2.3 mph /  3.7 km/h 2.3 mph /  3.7 km/h 68 % 0 in /  0.0 mm
Meteo Sesrovires
Elogis d' Weather Underground - 3.75 mb

Guio original per  Jim McMurry - jmcmurry@mwt.net Adaptat per a la plantilla per  Wim van der Kuil - Leuven-Template.eu

Trobareu la nostra informacio del temps tambe a:

Weather Underground

AWEKAS